createdAt,value
2023-02-13T00:00:01.231Z,27.42
2023-02-13T00:02:27.948Z,25.00
2023-02-13T00:04:55.268Z,26.63
2023-02-13T00:07:22.008Z,26.60
2023-02-13T00:09:48.698Z,34.50
2023-02-13T00:12:15.387Z,26.77
2023-02-13T00:14:42.114Z,30.17
2023-02-13T00:17:09.041Z,30.10
2023-02-13T00:19:35.760Z,29.60
2023-02-13T00:22:02.448Z,26.70
2023-02-13T00:24:29.097Z,27.63
2023-02-13T00:26:55.739Z,29.10
2023-02-13T00:29:22.430Z,27.58
2023-02-13T00:31:49.208Z,25.45
2023-02-13T00:34:15.950Z,27.45
2023-02-13T00:36:42.624Z,26.20
2023-02-13T00:39:11.602Z,29.13
2023-02-13T00:41:39.089Z,28.73
2023-02-13T00:44:05.973Z,27.83
2023-02-13T00:46:32.693Z,25.27
2023-02-13T00:48:59.383Z,25.88
2023-02-13T00:51:26.148Z,25.75
2023-02-13T00:53:52.820Z,27.13
2023-02-13T00:56:19.592Z,25.40
2023-02-13T00:58:46.441Z,27.27
2023-02-13T01:01:13.281Z,25.90
2023-02-13T01:03:40.189Z,29.42
2023-02-13T01:06:07.453Z,30.30
2023-02-13T01:08:34.218Z,27.60
2023-02-13T01:11:00.878Z,26.20
2023-02-13T01:13:27.641Z,28.45
2023-02-13T01:15:54.407Z,24.45
2023-02-13T01:18:21.249Z,29.33
2023-02-13T01:20:57.515Z,24.45
2023-02-13T01:23:24.593Z,23.50
2023-02-13T01:25:51.871Z,28.95
2023-02-13T01:28:18.721Z,27.50
2023-02-13T01:30:45.423Z,26.88
2023-02-13T01:33:12.270Z,28.00
2023-02-13T01:35:41.959Z,26.15
2023-02-13T01:38:08.616Z,29.33
2023-02-13T01:40:35.321Z,31.95
2023-02-13T01:43:02.022Z,37.45
2023-02-13T01:45:30.643Z,34.55
2023-02-13T01:48:08.897Z,38.13
2023-02-13T01:50:45.554Z,40.15
2023-02-13T01:53:28.993Z,37.88
2023-02-13T01:55:59.060Z,36.72
2023-02-13T01:58:28.394Z,36.25
2023-02-13T02:00:55.292Z,31.15
2023-02-13T02:03:32.584Z,35.10
2023-02-13T02:05:59.653Z,33.67
2023-02-13T02:08:26.444Z,31.13
2023-02-13T02:10:56.615Z,40.22
2023-02-13T02:13:23.656Z,34.22
2023-02-13T02:15:50.372Z,37.13
2023-02-13T02:18:26.171Z,34.88
2023-02-13T02:21:16.070Z,34.50
2023-02-13T02:23:48.457Z,33.75
2023-02-13T02:26:37.083Z,29.23
2023-02-13T02:29:30.908Z,32.95
2023-02-13T02:32:31.079Z,34.28
2023-02-13T02:35:22.630Z,37.85
2023-02-13T02:38:06.914Z,36.97
2023-02-13T02:41:07.321Z,36.22
2023-02-13T02:43:33.943Z,34.97
2023-02-13T02:46:27.682Z,33.20
2023-02-13T02:49:15.948Z,32.85
2023-02-13T02:51:50.264Z,31.85
2023-02-13T02:54:38.608Z,30.92
2023-02-13T02:57:09.502Z,29.73
2023-02-13T02:59:54.825Z,29.83
2023-02-13T03:02:40.011Z,27.35
2023-02-13T03:05:34.821Z,25.83
2023-02-13T03:08:02.949Z,26.08
2023-02-13T03:10:51.187Z,28.38
2023-02-13T03:13:29.124Z,26.58
2023-02-13T03:16:16.559Z,28.80
2023-02-13T03:19:06.757Z,26.67
2023-02-13T03:22:13.686Z,28.38
2023-02-13T03:24:49.933Z,26.52
2023-02-13T03:27:56.992Z,30.52
2023-02-13T03:30:30.396Z,29.35
2023-02-13T03:33:06.448Z,27.92
2023-02-13T03:35:57.652Z,26.45
2023-02-13T03:38:35.228Z,29.73
2023-02-13T03:41:18.432Z,30.85
2023-02-13T03:44:09.407Z,31.58
2023-02-13T03:46:42.048Z,26.70
2023-02-13T03:49:42.443Z,35.13
2023-02-13T03:52:51.572Z,29.45
2023-02-13T03:55:39.887Z,37.58
2023-02-13T03:58:30.281Z,33.28
2023-02-13T04:00:58.732Z,35.40
2023-02-13T04:03:49.988Z,33.53
2023-02-13T04:06:19.558Z,32.03
2023-02-13T04:08:46.273Z,29.45
2023-02-13T04:11:12.860Z,28.58
2023-02-13T04:13:44.044Z,31.60
2023-02-13T04:16:13.822Z,30.33
2023-02-13T04:18:40.520Z,32.38
2023-02-13T04:21:07.742Z,31.95
2023-02-13T04:23:36.741Z,27.50
2023-02-13T04:26:06.741Z,32.97
2023-02-13T04:28:33.463Z,36.03
2023-02-13T04:31:00.608Z,29.50
2023-02-13T04:33:27.524Z,31.02
2023-02-13T04:35:54.190Z,37.00
2023-02-13T04:38:20.910Z,28.95
2023-02-13T04:40:47.562Z,32.80
2023-02-13T04:43:14.237Z,33.33
2023-02-13T04:45:40.905Z,30.77
2023-02-13T04:48:07.680Z,35.10
2023-02-13T04:50:34.391Z,37.05
2023-02-13T04:53:01.090Z,32.00
2023-02-13T04:55:28.207Z,30.65
2023-02-13T04:57:55.585Z,33.92
2023-02-13T05:00:23.984Z,35.90
2023-02-13T05:02:50.903Z,33.38
2023-02-13T05:05:17.842Z,33.65
2023-02-13T05:07:44.522Z,34.72
2023-02-13T05:10:12.045Z,34.65
2023-02-13T05:12:38.786Z,32.35
2023-02-13T05:15:06.522Z,36.38
2023-02-13T05:17:33.176Z,36.08
2023-02-13T05:20:00.106Z,38.30
2023-02-13T05:22:45.342Z,35.05
2023-02-13T05:25:12.104Z,31.02
2023-02-13T05:27:38.800Z,33.40
2023-02-13T05:30:06.173Z,37.75
2023-02-13T05:32:32.872Z,31.55
2023-02-13T05:34:59.546Z,36.10
2023-02-13T05:37:26.252Z,36.20
2023-02-13T05:39:52.936Z,38.38
2023-02-13T05:42:19.584Z,34.97
2023-02-13T05:44:46.247Z,33.83
2023-02-13T05:47:12.892Z,36.72
2023-02-13T05:49:39.595Z,36.15
2023-02-13T05:52:06.339Z,37.33
2023-02-13T05:54:32.967Z,37.83
2023-02-13T05:56:59.640Z,44.42
2023-02-13T05:59:26.355Z,59.10
2023-02-13T06:01:53.882Z,67.50
2023-02-13T06:04:20.636Z,50.13
2023-02-13T06:06:47.354Z,41.83
2023-02-13T06:09:14.016Z,36.72
2023-02-13T06:11:40.708Z,34.97
2023-02-13T06:14:07.459Z,36.38
2023-02-13T06:16:34.766Z,32.22
2023-02-13T06:19:01.444Z,30.83
2023-02-13T06:21:28.100Z,34.70
2023-02-13T06:23:54.777Z,29.65
2023-02-13T06:26:21.552Z,30.83
2023-02-13T06:28:48.300Z,31.92
2023-02-13T06:31:15.081Z,30.08
2023-02-13T06:33:41.807Z,33.10
2023-02-13T06:36:08.562Z,31.65
2023-02-13T06:38:35.249Z,35.25
2023-02-13T06:41:02.166Z,34.22
2023-02-13T06:43:28.975Z,36.00
2023-02-13T06:45:55.683Z,42.97
2023-02-13T06:48:22.745Z,44.38
2023-02-13T06:50:52.179Z,43.33
2023-02-13T06:53:24.871Z,37.28
2023-02-13T06:55:53.384Z,40.70
2023-02-13T06:58:21.207Z,43.03
2023-02-13T07:00:47.958Z,45.45
2023-02-13T07:03:14.837Z,42.03
2023-02-13T07:05:42.292Z,39.35
2023-02-13T07:08:10.072Z,41.97
2023-02-13T07:10:41.078Z,44.10
2023-02-13T07:13:08.146Z,40.65
2023-02-13T07:15:35.424Z,40.92
2023-02-13T07:18:02.377Z,40.60
2023-02-13T07:20:29.110Z,46.58
2023-02-13T07:23:03.453Z,41.33
2023-02-13T07:25:30.755Z,39.08
2023-02-13T07:28:07.247Z,38.63
2023-02-13T07:30:34.636Z,41.47
2023-02-13T07:33:05.261Z,44.30
2023-02-13T07:35:32.448Z,43.15
2023-02-13T07:38:00.666Z,40.58
2023-02-13T07:40:27.604Z,41.10
2023-02-13T07:42:54.243Z,38.63
2023-02-13T07:45:20.940Z,37.78
2023-02-13T07:47:47.579Z,42.38
2023-02-13T07:50:14.307Z,40.13
2023-02-13T07:52:41.073Z,43.25
2023-02-13T07:55:08.957Z,43.55
2023-02-13T07:57:35.580Z,40.47
2023-02-13T08:00:02.552Z,35.78
2023-02-13T08:02:29.321Z,43.25
2023-02-13T08:04:55.973Z,36.13
2023-02-13T08:07:22.612Z,41.40
2023-02-13T08:10:07.834Z,42.97
2023-02-13T08:12:35.473Z,38.97
2023-02-13T08:15:02.246Z,39.30
2023-02-13T08:17:28.913Z,37.75
2023-02-13T08:19:55.589Z,40.05
2023-02-13T08:22:22.343Z,39.92
2023-02-13T08:24:49.007Z,40.30
2023-02-13T08:27:16.262Z,39.85
2023-02-13T08:29:42.978Z,40.38
2023-02-13T08:32:09.874Z,38.20
2023-02-13T08:34:36.692Z,40.25
2023-02-13T08:37:03.625Z,35.90
2023-02-13T08:39:30.380Z,33.40
2023-02-13T08:41:57.105Z,36.92
2023-02-13T08:44:23.818Z,32.08
2023-02-13T08:46:50.485Z,34.85
2023-02-13T08:49:17.294Z,35.58
2023-02-13T08:51:44.024Z,30.92
2023-02-13T08:54:10.817Z,34.25
2023-02-13T08:56:37.460Z,33.53
2023-02-13T08:59:04.133Z,28.83
2023-02-13T09:01:30.847Z,34.97
2023-02-13T09:03:57.609Z,34.10
2023-02-13T09:06:26.427Z,32.22
2023-02-13T09:08:53.557Z,30.65
2023-02-13T09:11:23.290Z,28.77
2023-02-13T09:13:52.990Z,28.55
2023-02-13T09:16:19.884Z,26.65
2023-02-13T09:18:50.664Z,26.02
2023-02-13T09:21:18.588Z,24.35
2023-02-13T09:23:45.581Z,26.23
2023-02-13T09:26:14.167Z,25.30
2023-02-13T09:28:41.158Z,27.30
2023-02-13T09:31:07.913Z,25.02
2023-02-13T09:33:35.285Z,24.85
2023-02-13T09:36:10.134Z,25.65
2023-02-13T09:38:37.040Z,24.58
2023-02-13T09:41:25.529Z,23.02
2023-02-13T09:43:52.301Z,22.77
2023-02-13T09:46:25.322Z,24.67
2023-02-13T09:51:23.310Z,22.48
2023-02-13T09:54:04.352Z,25.05
2023-02-13T09:56:34.127Z,20.02
2023-02-13T09:59:04.012Z,24.50
2023-02-13T10:01:49.683Z,23.50
2023-02-13T10:04:34.564Z,19.40
2023-02-13T10:07:19.335Z,20.50
2023-02-13T10:09:55.436Z,18.73
2023-02-13T10:12:28.233Z,20.60
2023-02-13T10:15:17.640Z,17.15
2023-02-13T10:17:50.874Z,20.20
2023-02-13T10:20:35.275Z,16.02
2023-02-13T10:23:37.627Z,18.13
2023-02-13T10:26:06.284Z,16.95
2023-02-13T10:28:43.098Z,15.98
2023-02-13T10:31:15.260Z,18.02
2023-02-13T10:33:51.394Z,14.47
2023-02-13T10:36:29.267Z,18.63
2023-02-13T10:39:12.638Z,18.23
2023-02-13T10:44:28.215Z,16.30
2023-02-13T10:47:10.777Z,12.45
2023-02-13T10:49:58.659Z,14.75
2023-02-13T10:52:50.385Z,16.88
2023-02-13T10:55:32.678Z,12.48
2023-02-13T10:58:13.439Z,12.63
2023-02-13T11:00:51.582Z,15.32
2023-02-13T11:03:25.636Z,12.43
2023-02-13T11:05:53.417Z,14.75
2023-02-13T11:08:31.006Z,14.45
2023-02-13T11:10:57.670Z,16.70
2023-02-13T11:13:26.094Z,13.88
2023-02-13T11:16:05.200Z,13.15
2023-02-13T11:18:37.392Z,12.23
2023-02-13T11:21:09.178Z,11.98
2023-02-13T11:23:40.916Z,11.27
2023-02-13T11:26:14.487Z,13.43
2023-02-13T11:28:54.007Z,11.80
2023-02-13T11:31:34.955Z,12.70
2023-02-13T11:34:28.002Z,12.23
2023-02-13T11:37:10.223Z,12.07
2023-02-13T11:39:36.929Z,13.15
2023-02-13T11:42:03.762Z,14.52
2023-02-13T11:44:32.065Z,12.15
2023-02-13T11:47:00.592Z,14.07
2023-02-13T11:49:35.678Z,11.00
2023-02-13T11:52:24.621Z,11.55
2023-02-13T11:54:59.680Z,13.75
2023-02-13T11:57:37.308Z,13.40
2023-02-13T12:00:37.723Z,13.73
2023-02-13T12:03:30.448Z,11.75
2023-02-13T12:06:03.381Z,13.13
2023-02-13T12:08:30.838Z,13.90
2023-02-13T12:10:58.840Z,10.77
2023-02-13T12:13:34.307Z,11.55
2023-02-13T12:16:04.540Z,11.90
2023-02-13T12:18:40.099Z,11.02
2023-02-13T12:21:43.036Z,11.57
2023-02-13T12:24:31.449Z,13.40
2023-02-13T12:27:09.320Z,14.05
2023-02-13T12:30:10.335Z,12.52
2023-02-13T12:33:00.741Z,11.68
2023-02-13T12:35:30.403Z,12.05
2023-02-13T12:38:32.638Z,11.27
2023-02-13T12:41:32.466Z,10.77
2023-02-13T12:44:05.339Z,11.05
2023-02-13T12:46:41.427Z,9.68
2023-02-13T12:49:46.320Z,8.23
2023-02-13T12:52:34.590Z,6.47
2023-02-13T12:55:27.154Z,6.90
2023-02-13T12:58:18.896Z,7.40
2023-02-13T13:01:16.444Z,7.45
2023-02-13T13:03:52.026Z,7.35
2023-02-13T13:06:26.300Z,6.13
2023-02-13T13:08:59.060Z,6.18
2023-02-13T13:11:47.522Z,5.00
2023-02-13T13:14:23.736Z,5.05
2023-02-13T13:17:25.558Z,6.30
2023-02-13T13:20:23.613Z,5.40
2023-02-13T13:22:53.822Z,5.15
2023-02-13T13:25:29.754Z,5.72
2023-02-13T13:28:02.487Z,5.95
2023-02-13T13:33:00.985Z,4.40
2023-02-13T13:35:27.797Z,6.30
2023-02-13T13:38:06.690Z,5.18
2023-02-13T13:40:53.646Z,6.53
2023-02-13T13:43:33.178Z,5.63
2023-02-13T13:46:16.281Z,6.00
2023-02-13T13:51:17.359Z,5.03
2023-02-13T13:54:05.967Z,5.30
2023-02-13T13:56:54.589Z,6.82
2023-02-13T13:59:55.698Z,5.70
2023-02-13T14:02:22.619Z,5.40
2023-02-13T14:05:21.301Z,5.88
2023-02-13T14:07:50.534Z,6.20
2023-02-13T14:10:26.391Z,6.07
2023-02-13T14:12:56.062Z,5.57
2023-02-13T14:15:35.119Z,4.80
2023-02-13T14:18:04.323Z,6.53
2023-02-13T14:20:52.433Z,5.47
2023-02-13T14:23:35.567Z,5.65
2023-02-13T14:29:21.534Z,8.52
2023-02-13T14:32:02.560Z,6.00
2023-02-13T14:34:31.732Z,6.00
2023-02-13T14:37:10.651Z,5.18
2023-02-13T14:39:38.331Z,6.20
2023-02-13T14:42:21.585Z,6.90
2023-02-13T14:47:50.983Z,6.03
2023-02-13T14:50:51.442Z,6.38
2023-02-13T14:53:24.826Z,8.23
2023-02-13T14:55:56.319Z,6.38
2023-02-13T14:58:30.006Z,5.75
2023-02-13T15:01:11.644Z,4.97
2023-02-13T15:03:45.188Z,6.35
2023-02-13T15:06:34.744Z,6.38
2023-02-13T15:09:04.008Z,7.00
2023-02-13T15:11:38.185Z,5.20
2023-02-13T15:14:33.968Z,5.85
2023-02-13T15:17:06.896Z,6.65
2023-02-13T15:19:36.248Z,6.55
2023-02-13T15:22:04.493Z,6.75
2023-02-13T15:24:47.841Z,5.53
2023-02-13T15:29:59.987Z,6.57
2023-02-13T15:32:29.533Z,9.77
2023-02-13T15:34:56.256Z,6.93
2023-02-13T15:37:25.025Z,7.45
2023-02-13T15:39:51.759Z,7.43
2023-02-13T15:42:18.587Z,10.18
2023-02-13T15:44:49.230Z,8.32
2023-02-13T15:47:26.749Z,7.35
2023-02-13T15:49:53.496Z,10.27
2023-02-13T15:52:34.181Z,11.07
2023-02-13T15:55:00.963Z,10.35
2023-02-13T15:57:28.191Z,10.25
2023-02-13T15:59:55.858Z,8.50
2023-02-13T16:02:34.506Z,9.68
2023-02-13T16:05:01.678Z,10.18
2023-02-13T16:07:28.355Z,10.88
2023-02-13T16:10:18.570Z,10.15
2023-02-13T16:12:48.329Z,9.52
2023-02-13T16:15:20.252Z,10.85
2023-02-13T16:17:47.083Z,11.25
2023-02-13T16:20:14.056Z,9.65
2023-02-13T16:22:54.071Z,12.75
2023-02-13T16:25:28.504Z,11.48
2023-02-13T16:28:00.168Z,10.93
2023-02-13T16:30:38.740Z,11.30
2023-02-13T16:33:14.557Z,10.73
2023-02-13T16:35:45.478Z,13.30
2023-02-13T16:38:32.876Z,11.27
2023-02-13T16:41:19.795Z,11.25
2023-02-13T16:43:47.412Z,10.48
2023-02-13T16:46:23.488Z,11.15
2023-02-13T16:48:56.928Z,10.60
2023-02-13T16:51:30.034Z,12.30
2023-02-13T16:56:29.544Z,12.45
2023-02-13T16:59:28.795Z,12.88
2023-02-13T17:02:18.266Z,13.50
2023-02-13T17:04:48.420Z,15.38
2023-02-13T17:07:22.413Z,12.52
2023-02-13T17:09:54.768Z,12.80
2023-02-13T17:12:22.440Z,14.43
2023-02-13T17:14:49.637Z,13.05
2023-02-13T17:17:18.838Z,13.85
2023-02-13T17:19:46.033Z,13.93
2023-02-13T17:22:42.967Z,14.38
2023-02-13T17:25:17.639Z,16.80
2023-02-13T17:27:44.987Z,15.10
2023-02-13T17:30:20.796Z,16.75
2023-02-13T17:32:48.438Z,17.45
2023-02-13T17:35:16.729Z,16.95
2023-02-13T17:37:44.626Z,17.33
2023-02-13T17:40:20.691Z,14.30
2023-02-13T17:42:52.115Z,15.20
2023-02-13T17:45:21.013Z,15.48
2023-02-13T17:47:48.247Z,18.02
2023-02-13T17:50:17.448Z,16.45
2023-02-13T17:52:45.485Z,16.30
2023-02-13T17:55:24.798Z,17.65
2023-02-13T17:57:52.623Z,18.55
2023-02-13T18:00:20.824Z,18.70
2023-02-13T18:02:48.733Z,18.23
2023-02-13T18:05:17.057Z,14.35
2023-02-13T18:07:44.718Z,19.10
2023-02-13T18:10:13.716Z,18.00
2023-02-13T18:12:40.751Z,15.88
2023-02-13T18:15:08.677Z,16.00
2023-02-13T18:17:35.786Z,18.13
2023-02-13T18:20:03.017Z,17.52
2023-02-13T18:22:30.141Z,17.88
2023-02-13T18:24:57.439Z,17.33
2023-02-13T18:27:26.649Z,19.50
2023-02-13T18:29:56.088Z,18.50
2023-02-13T18:32:23.685Z,19.42
2023-02-13T18:34:50.892Z,18.05
2023-02-13T18:37:20.015Z,18.58
2023-02-13T18:39:47.530Z,21.83
2023-02-13T18:42:14.809Z,21.48
2023-02-13T18:44:43.379Z,23.52
2023-02-13T18:47:10.242Z,23.73
2023-02-13T18:49:37.446Z,21.15
2023-02-13T18:52:04.589Z,21.23
2023-02-13T18:54:31.783Z,22.90
2023-02-13T18:56:58.860Z,23.08
2023-02-13T18:59:26.285Z,23.20
2023-02-13T19:01:53.584Z,23.42
2023-02-13T19:04:20.804Z,23.88
2023-02-13T19:06:48.147Z,24.25
2023-02-13T19:09:16.326Z,25.05
2023-02-13T19:11:44.699Z,22.10
2023-02-13T19:14:12.677Z,24.10
2023-02-13T19:19:22.872Z,24.75
2023-02-13T19:21:50.044Z,26.45
2023-02-13T19:24:17.496Z,21.42
2023-02-13T19:26:45.062Z,28.67
2023-02-13T19:29:12.176Z,25.80
2023-02-13T19:31:41.642Z,29.75
2023-02-13T19:34:09.098Z,26.23
2023-02-13T19:36:36.136Z,26.63
2023-02-13T19:39:05.222Z,27.20
2023-02-13T19:41:33.311Z,26.83
2023-02-13T19:44:02.408Z,29.10
2023-02-13T19:46:31.229Z,28.45
2023-02-13T19:48:59.229Z,27.30
2023-02-13T19:51:31.170Z,29.13
2023-02-13T19:54:02.864Z,27.73
2023-02-13T19:56:31.070Z,27.58
2023-02-13T19:58:58.526Z,27.48
2023-02-13T20:01:26.682Z,28.85
2023-02-13T20:03:54.184Z,26.08
2023-02-13T20:06:24.446Z,30.25
2023-02-13T20:08:52.388Z,32.35
2023-02-13T20:11:22.246Z,29.90
2023-02-13T20:13:55.840Z,28.08
2023-02-13T20:16:23.589Z,28.15
2023-02-13T20:18:52.226Z,25.30
2023-02-13T20:21:20.003Z,28.88
2023-02-13T20:23:51.410Z,29.27
2023-02-13T20:26:19.301Z,27.42
2023-02-13T20:28:47.454Z,29.48
2023-02-13T20:31:16.841Z,27.38
2023-02-13T20:33:44.526Z,32.95
2023-02-13T20:36:12.917Z,28.88
2023-02-13T20:38:40.754Z,32.33
2023-02-13T20:41:15.560Z,28.17
2023-02-13T20:43:43.204Z,31.23
2023-02-13T20:46:11.001Z,31.25
2023-02-13T20:48:41.429Z,26.85
2023-02-13T20:51:11.845Z,28.75
2023-02-13T20:53:39.638Z,27.92
2023-02-13T20:56:12.486Z,28.27
2023-02-13T20:58:41.131Z,29.10
2023-02-13T21:01:33.368Z,31.00
2023-02-13T21:04:00.460Z,31.30
2023-02-13T21:06:29.906Z,33.38
2023-02-13T21:08:56.780Z,29.95
2023-02-13T21:11:24.316Z,33.15
2023-02-13T21:13:51.914Z,31.63
2023-02-13T21:16:24.392Z,29.65
2023-02-13T21:18:53.583Z,31.83
2023-02-13T21:21:22.670Z,33.92
2023-02-13T21:23:52.996Z,36.63
2023-02-13T21:26:19.887Z,32.75
2023-02-13T21:28:47.936Z,32.75
2023-02-13T21:31:17.450Z,31.40
2023-02-13T21:33:44.191Z,31.70
2023-02-13T21:36:12.175Z,34.42
2023-02-13T21:38:40.234Z,34.58
2023-02-13T21:41:11.980Z,35.53
2023-02-13T21:43:38.920Z,34.00
2023-02-13T21:46:18.073Z,30.38
2023-02-13T21:48:45.395Z,32.53
2023-02-13T21:51:19.348Z,34.38
2023-02-13T21:53:46.807Z,37.38
2023-02-13T21:56:16.035Z,42.55
2023-02-13T21:58:44.064Z,42.17
2023-02-13T22:01:25.435Z,45.97
2023-02-13T22:03:53.789Z,45.05
2023-02-13T22:06:21.126Z,36.75
2023-02-13T22:08:48.127Z,38.90
2023-02-13T22:11:15.223Z,44.85
2023-02-13T22:13:41.947Z,38.17
2023-02-13T22:16:10.882Z,40.55
2023-02-13T22:18:39.669Z,43.88
2023-02-13T22:21:16.391Z,46.13
2023-02-13T22:23:44.058Z,42.92
2023-02-13T22:26:21.790Z,44.97
2023-02-13T22:28:49.082Z,46.63
2023-02-13T22:31:16.201Z,41.53
2023-02-13T22:33:47.499Z,44.70
2023-02-13T22:36:18.243Z,47.00
2023-02-13T22:38:45.061Z,46.65
2023-02-13T22:41:32.008Z,41.17
2023-02-13T22:43:58.663Z,45.65
2023-02-13T22:46:29.627Z,44.88
2023-02-13T22:48:56.374Z,43.53
2023-02-13T22:51:25.546Z,44.42
2023-02-13T22:53:53.916Z,40.75
2023-02-13T22:56:20.982Z,44.80
2023-02-13T22:58:47.625Z,40.20
2023-02-13T23:01:16.463Z,44.35
2023-02-13T23:03:43.303Z,40.58
2023-02-13T23:06:10.920Z,46.28
2023-02-13T23:08:37.945Z,44.75
2023-02-13T23:11:28.684Z,42.95
2023-02-13T23:13:55.350Z,45.83
2023-02-13T23:16:22.085Z,45.08
2023-02-13T23:18:53.203Z,45.97
2023-02-13T23:21:20.129Z,42.58
2023-02-13T23:23:47.057Z,45.35
2023-02-13T23:26:13.711Z,43.78
2023-02-13T23:28:40.383Z,50.30
2023-02-13T23:31:07.280Z,48.92
2023-02-13T23:33:33.996Z,42.63
2023-02-13T23:36:00.737Z,48.15
2023-02-13T23:38:27.444Z,44.75
2023-02-13T23:40:54.158Z,43.83
2023-02-13T23:43:20.853Z,43.15
2023-02-13T23:45:47.609Z,45.03
2023-02-13T23:48:14.332Z,37.45
2023-02-13T23:50:41.214Z,36.55
2023-02-13T23:53:07.903Z,40.03
2023-02-13T23:55:34.671Z,38.53
2023-02-13T23:58:01.327Z,42.03
